Grant, NE

6:11 AM MST on December 07, 2016 (GMT -0700)
Northwest Chase County | | Change Station

Elev 3494 ft 40.67 °N, 101.91 °W | Updated 17 seconds ago

Light Snow
Light Snow
10.6 °F
Feels Like 11 °F
N
0.0
Wind Variable Wind from NE

Today
High -- | Low -- °F
--% Chance of Precip.
Yesterday
High -- | Low -- °F
Precip. -- in
Pressure 30.20 in
Visibility 1.8 miles
Clouds Scattered Clouds 900 ft
Overcast 1600 ft
Windchill 11 °F
Dew Point 8 °F
Humidity 91%
Rainfall 0.00 in
Snow Depth Not available.
6:58 AM 4:18 PM
First Quarter, 52% visible
METAR KOGA 071255Z AUTO 01007KT 1 3/4SM -SN SCT009 OVC016 M10/M13 A3020 RMK AO2 T11041128
Pressure 30.20 in
Visibility 1.8 miles
Clouds Scattered Clouds 900 ft
Overcast 1600 ft
Windchill 11 °F
Dew Point 8 °F
Humidity 91%
Rainfall 0.00 in
Snow Depth Not available.
6:58 AM 4:18 PM
First Quarter, 52% visible
METAR KOGA 071255Z AUTO 01007KT 1 3/4SM -SN SCT009 OVC016 M10/M13 A3020 RMK AO2 T11041128

10-Day Weather Forecast

Almanac

Astronomy

Dec. 07, 2016 Rise Set
Actual Time
Civil Twilight
Nautical Twilight
Astronomical Twilight
Moon
Length of Visible Light
Length of Day
Tomorrow will be .
, % of the Moon is Illuminated

Today's Extremes

State Highs State Lows

Community

WunderPhotos

Upload Photos

1,956,112 photos uploaded!

WunderBlog® & News

Nearby

Air Quality

  Air Quality AQ Index Pollutant
Not available.

Snow Depth

Station Depth Elevation

Earthquake Activity

City Distance Mag. Time & Date
Minimum magnitude displayed is 2.5.

Coastal Water Temperatures

Place Temperature

Stations

Nearby Weather Stations

Station Location Temp. Windchill Dew Point Humidity Wind Precip. Elev Updated Type
                   

Watches & Warnings

There are currently no watches in effect.